createdAt,value
2019-05-10T00:00:35.402Z,99844.36
2019-05-10T00:03:22.688Z,99846.02
2019-05-10T00:06:09.948Z,99847.49
2019-05-10T00:08:47.668Z,99850.14
2019-05-10T00:11:40.887Z,99850.28
2019-05-10T00:14:29.425Z,99857.52
2019-05-10T00:17:00.931Z,99852.12
2019-05-10T00:19:30.764Z,99852.84
2019-05-10T00:22:00.345Z,99849.04
2019-05-10T00:24:30.068Z,99856.47
2019-05-10T00:26:59.595Z,99854.19
2019-05-10T00:29:29.247Z,99852.45
2019-05-10T00:31:59.275Z,99853.32
2019-05-10T00:34:28.961Z,99855.67
2019-05-10T00:36:58.627Z,99857.27
2019-05-10T00:39:28.310Z,99854.57
2019-05-10T00:41:57.840Z,99857.40
2019-05-10T00:44:27.709Z,99858.16
2019-05-10T00:46:57.419Z,99863.92
2019-05-10T00:49:27.072Z,99861.05
2019-05-10T00:51:56.695Z,99864.37
2019-05-10T00:54:26.679Z,99866.65
2019-05-10T00:56:56.434Z,99871.84
2019-05-10T00:59:26.051Z,99871.61
2019-05-10T01:01:55.638Z,99870.33
2019-05-10T01:04:25.149Z,99872.67
2019-05-10T01:06:56.500Z,99869.25
2019-05-10T01:09:26.017Z,99868.44
2019-05-10T01:11:55.543Z,99879.81
2019-05-10T01:14:25.060Z,99875.42
2019-05-10T01:16:54.677Z,99870.41
2019-05-10T01:19:24.205Z,99873.36
2019-05-10T01:21:53.701Z,99873.38
2019-05-10T01:24:23.237Z,99874.77
2019-05-10T01:26:52.884Z,99870.69
2019-05-10T01:29:22.435Z,99871.72
2019-05-10T01:31:52.009Z,99875.50
2019-05-10T01:34:21.739Z,99875.91
2019-05-10T01:36:51.349Z,99881.94
2019-05-10T01:39:21.227Z,99890.00
2019-05-10T01:41:50.810Z,99887.22
2019-05-10T01:44:20.504Z,99897.03
2019-05-10T01:46:50.223Z,99893.23
2019-05-10T01:49:19.819Z,99897.47
2019-05-10T01:52:08.734Z,99901.14
2019-05-10T01:54:39.896Z,99903.06
2019-05-10T01:57:09.415Z,99905.12
2019-05-10T01:59:39.049Z,99910.73
2019-05-10T02:02:08.708Z,99906.25
2019-05-10T02:04:38.248Z,99908.89
2019-05-10T02:07:07.922Z,99912.68
2019-05-10T02:09:37.720Z,99916.03
2019-05-10T02:12:07.310Z,99916.32
2019-05-10T02:14:36.909Z,99922.04
2019-05-10T02:17:06.406Z,99922.00
2019-05-10T02:19:35.943Z,99918.01
2019-05-10T02:22:05.765Z,99923.69
2019-05-10T02:24:35.268Z,99925.91
2019-05-10T02:27:04.850Z,99923.40
2019-05-10T02:29:34.587Z,99926.23
2019-05-10T02:32:05.333Z,99923.24
2019-05-10T02:34:34.870Z,99926.80
2019-05-10T02:37:04.642Z,99928.55
2019-05-10T02:39:34.556Z,99935.67
2019-05-10T02:42:04.228Z,99932.31
2019-05-10T02:44:34.236Z,99939.27
2019-05-10T02:47:03.816Z,99932.64
2019-05-10T02:49:33.455Z,99941.11
2019-05-10T02:52:03.090Z,99938.47
2019-05-10T02:54:32.648Z,99934.80
2019-05-10T02:57:03.669Z,99939.59
2019-05-10T02:59:35.677Z,99937.83
2019-05-10T03:02:07.334Z,99937.08
2019-05-10T03:04:37.971Z,99942.42
2019-05-10T03:07:07.956Z,99942.98
2019-05-10T03:09:37.575Z,99944.22
2019-05-10T03:12:23.852Z,99949.27
2019-05-10T03:14:57.081Z,99958.98
2019-05-10T03:17:29.409Z,99962.87
2019-05-10T03:20:01.187Z,99971.55
2019-05-10T03:22:36.146Z,99979.95
2019-05-10T03:25:07.269Z,99976.53
2019-05-10T03:27:36.916Z,99981.31
2019-05-10T03:30:06.902Z,99981.83
2019-05-10T03:32:36.545Z,99984.09
2019-05-10T03:35:08.265Z,99988.68
2019-05-10T03:37:38.802Z,99985.18
2019-05-10T03:40:09.954Z,99999.20
2019-05-10T03:42:39.561Z,99991.77
2019-05-10T03:45:10.285Z,99995.65
2019-05-10T03:47:39.819Z,99999.14
2019-05-10T03:50:09.971Z,99998.12
2019-05-10T03:52:39.999Z,99996.50
2019-05-10T03:55:09.922Z,100003.29
2019-05-10T03:57:39.521Z,99995.65
2019-05-10T04:00:12.619Z,100000.05
2019-05-10T04:02:42.222Z,99996.86
2019-05-10T04:05:12.876Z,100002.49
2019-05-10T04:07:42.666Z,99998.55
2019-05-10T04:10:12.767Z,99997.89
2019-05-10T04:12:42.425Z,100001.41
2019-05-10T04:15:12.418Z,100004.47
2019-05-10T04:17:42.026Z,100004.66
2019-05-10T04:20:11.923Z,100010.25
2019-05-10T04:22:41.486Z,100010.13
2019-05-10T04:25:11.347Z,100012.12
2019-05-10T04:27:41.377Z,100016.53
2019-05-10T04:30:12.672Z,100017.95
2019-05-10T04:32:42.279Z,100027.41
2019-05-10T04:35:11.936Z,100031.67
2019-05-10T04:37:41.565Z,100027.59
2019-05-10T04:40:11.386Z,100032.00
2019-05-10T04:42:40.981Z,100033.33
2019-05-10T04:45:11.583Z,100037.35
2019-05-10T04:47:41.162Z,100043.68
2019-05-10T04:50:10.912Z,100048.72
2019-05-10T04:52:40.868Z,100045.95
2019-05-10T04:55:10.576Z,100055.95
2019-05-10T04:57:49.718Z,100057.39
2019-05-10T05:00:12.063Z,100053.83
2019-05-10T05:02:47.598Z,100049.19
2019-05-10T05:05:17.238Z,100051.23
2019-05-10T05:07:47.139Z,100054.83
2019-05-10T05:10:16.739Z,100050.33
2019-05-10T05:12:46.263Z,100057.61
2019-05-10T05:15:15.899Z,100061.42
2019-05-10T05:17:45.498Z,100057.09
2019-05-10T05:20:15.240Z,100060.77
2019-05-10T05:22:44.794Z,100063.75
2019-05-10T05:25:14.527Z,100069.80
2019-05-10T05:27:44.048Z,100067.53
2019-05-10T05:30:14.142Z,100071.51
2019-05-10T05:32:44.646Z,100075.61
2019-05-10T05:35:15.597Z,100081.73
2019-05-10T05:37:45.368Z,100082.52
2019-05-10T05:40:15.141Z,100087.21
2019-05-10T05:42:44.729Z,100086.95
2019-05-10T05:45:16.047Z,100090.25
2019-05-10T05:47:45.565Z,100094.84
2019-05-10T05:50:15.819Z,100096.26
2019-05-10T05:52:45.377Z,100096.67
2019-05-10T05:55:15.023Z,100093.63
2019-05-10T05:57:44.987Z,100101.44
2019-05-10T06:00:14.996Z,100097.84
2019-05-10T06:02:46.426Z,100102.73
2019-05-10T06:05:32.300Z,100101.40
2019-05-10T06:07:51.992Z,100103.77
2019-05-10T06:10:19.805Z,100106.44
2019-05-10T06:12:50.316Z,100111.06
2019-05-10T06:15:23.179Z,100107.41
2019-05-10T06:17:57.123Z,100112.13
2019-05-10T06:20:23.613Z,100116.66
2019-05-10T06:23:05.775Z,100119.53
2019-05-10T06:25:37.627Z,100124.77
2019-05-10T06:27:55.812Z,100120.77
2019-05-10T06:30:25.444Z,100119.14
2019-05-10T06:33:00.808Z,100122.02
2019-05-10T06:35:26.298Z,100130.55
2019-05-10T06:37:55.959Z,100132.06
2019-05-10T06:40:34.462Z,100131.47
2019-05-10T06:42:56.779Z,100140.49
2019-05-10T06:45:26.465Z,100138.31
2019-05-10T06:47:55.982Z,100138.08
2019-05-10T06:50:29.801Z,100139.78
2019-05-10T06:53:00.758Z,100147.27
2019-05-10T06:55:30.798Z,100149.03
2019-05-10T06:58:00.924Z,100149.03
2019-05-10T07:00:30.804Z,100150.31
2019-05-10T07:03:00.381Z,100147.88
2019-05-10T07:05:30.149Z,100153.81
2019-05-10T07:08:13.943Z,100156.94
2019-05-10T07:10:33.728Z,100152.92
2019-05-10T07:13:03.748Z,100150.62
2019-05-10T07:15:35.957Z,100152.25
2019-05-10T07:18:04.933Z,100156.34
2019-05-10T07:20:34.430Z,100159.58
2019-05-10T07:23:06.148Z,100160.48
2019-05-10T07:25:37.859Z,100164.52
2019-05-10T07:28:09.281Z,100168.11
2019-05-10T07:30:41.526Z,100161.98
2019-05-10T07:33:11.243Z,100166.91
2019-05-10T07:35:40.818Z,100173.88
2019-05-10T07:38:10.611Z,100172.81
2019-05-10T07:40:40.139Z,100176.89
2019-05-10T07:43:09.733Z,100170.48
2019-05-10T07:45:39.599Z,100177.23
2019-05-10T07:48:10.452Z,100172.59
2019-05-10T07:50:42.359Z,100169.44
2019-05-10T07:53:16.417Z,100176.89
2019-05-10T07:55:43.687Z,100182.45
2019-05-10T07:58:13.341Z,100183.37
2019-05-10T08:00:44.290Z,100178.98
2019-05-10T08:03:17.679Z,100178.54
2019-05-10T08:05:54.893Z,100185.53
2019-05-10T08:08:19.225Z,100183.70
2019-05-10T08:10:49.075Z,100183.66
2019-05-10T08:13:23.333Z,100184.69
2019-05-10T08:15:50.424Z,100189.23
2019-05-10T08:18:25.189Z,100186.92
2019-05-10T08:20:58.244Z,100193.09
2019-05-10T08:23:27.765Z,100199.95
2019-05-10T08:25:55.963Z,100198.68
2019-05-10T08:28:36.062Z,100202.27
2019-05-10T08:31:02.385Z,100198.95
2019-05-10T08:33:32.786Z,100210.23
2019-05-10T08:36:05.174Z,100217.14
2019-05-10T08:38:39.820Z,100219.97
2019-05-10T08:41:14.760Z,100219.84
2019-05-10T08:43:42.775Z,100225.23
2019-05-10T08:46:12.153Z,100223.36
2019-05-10T08:48:46.565Z,100230.86
2019-05-10T08:51:13.265Z,100224.48
2019-05-10T08:53:47.082Z,100231.22
2019-05-10T08:56:21.058Z,100238.98
2019-05-10T08:58:45.474Z,100244.19
2019-05-10T09:01:25.854Z,100235.66
2019-05-10T09:03:47.127Z,100242.55
2019-05-10T09:06:17.876Z,100238.62
2019-05-10T09:08:52.820Z,100238.90
2019-05-10T09:11:19.062Z,100234.84
2019-05-10T09:13:48.592Z,100241.30
2019-05-10T09:16:18.140Z,100254.89
2019-05-10T09:18:51.206Z,100253.06
2019-05-10T09:21:19.038Z,100245.14
2019-05-10T09:23:52.760Z,100249.44
2019-05-10T09:26:19.819Z,100259.38
2019-05-10T09:28:53.456Z,100252.64
2019-05-10T09:31:25.823Z,100257.77
2019-05-10T09:33:55.651Z,100263.20
2019-05-10T09:36:31.040Z,100269.67
2019-05-10T09:38:56.477Z,100272.12
2019-05-10T09:41:27.690Z,100269.50
2019-05-10T09:43:57.340Z,100282.00
2019-05-10T09:46:27.069Z,100279.48
2019-05-10T09:49:06.269Z,100285.15
2019-05-10T09:51:30.103Z,100287.75
2019-05-10T09:54:00.368Z,100285.11
2019-05-10T09:56:33.048Z,100293.27
2019-05-10T09:59:01.496Z,100291.06
2019-05-10T10:01:31.450Z,100289.14
2019-05-10T10:04:02.307Z,100295.54
2019-05-10T10:06:32.425Z,100294.95
2019-05-10T10:09:02.018Z,100296.47
2019-05-10T10:11:31.583Z,100301.23
2019-05-10T10:14:02.721Z,100297.56
2019-05-10T10:16:32.751Z,100303.05
2019-05-10T10:19:02.255Z,100306.02
2019-05-10T10:21:35.592Z,100298.56
2019-05-10T10:24:12.677Z,100308.13
2019-05-10T10:26:34.890Z,100312.68
2019-05-10T10:29:07.119Z,100313.14
2019-05-10T10:31:51.223Z,100323.94
2019-05-10T10:34:14.282Z,100342.38
2019-05-10T10:36:44.240Z,100356.00
2019-05-10T10:39:22.957Z,100362.91
2019-05-10T10:41:52.112Z,100368.38
2019-05-10T10:44:21.320Z,100373.11
2019-05-10T10:46:51.225Z,100377.22
2019-05-10T10:49:23.223Z,100375.61
2019-05-10T10:51:54.059Z,100378.02
2019-05-10T10:54:28.594Z,100378.44
2019-05-10T10:56:59.243Z,100383.80
2019-05-10T10:59:26.235Z,100396.78
2019-05-10T11:02:28.018Z,100406.55
2019-05-10T11:04:28.630Z,100403.46
2019-05-10T11:07:09.971Z,100412.36
2019-05-10T11:09:31.145Z,100418.02
2019-05-10T11:12:01.034Z,100427.08
2019-05-10T11:14:32.017Z,100424.47
2019-05-10T11:17:03.725Z,100432.29
2019-05-10T11:19:33.217Z,100435.95
2019-05-10T11:22:09.462Z,100439.58
2019-05-10T11:24:34.061Z,100434.98
2019-05-10T11:27:07.319Z,100445.61
2019-05-10T11:29:34.875Z,100437.85
2019-05-10T11:32:15.536Z,100451.11
2019-05-10T11:34:38.826Z,100452.20
2019-05-10T11:37:09.027Z,100458.41
2019-05-10T11:39:42.009Z,100460.30
2019-05-10T11:42:11.497Z,100458.17
2019-05-10T11:44:50.342Z,100463.42
2019-05-10T11:47:22.985Z,100461.41
2019-05-10T11:49:44.168Z,100468.72
2019-05-10T11:52:13.691Z,100472.58
2019-05-10T11:54:43.299Z,100476.89
2019-05-10T11:57:13.965Z,100487.81
2019-05-10T11:59:44.250Z,100493.58
2019-05-10T12:02:33.928Z,100490.73
2019-05-10T12:04:47.545Z,100487.41
2019-05-10T12:07:24.590Z,100489.19
2019-05-10T12:12:29.523Z,100503.76
2019-05-10T12:14:53.960Z,100501.98
2019-05-10T12:17:24.036Z,100497.30
2019-05-10T12:19:56.329Z,100506.13
2019-05-10T12:22:32.010Z,100512.66
2019-05-10T12:25:22.082Z,100520.53
2019-05-10T12:26:16.313Z,100498.48
2019-05-10T12:27:41.747Z,100520.03
2019-05-10T12:30:00.706Z,100525.55
2019-05-10T12:32:33.446Z,100526.75
2019-05-10T12:35:03.282Z,100534.35
2019-05-10T12:37:33.358Z,100529.44
2019-05-10T12:40:11.769Z,100524.91
2019-05-10T12:42:34.652Z,100530.25
2019-05-10T12:45:06.414Z,100529.28
2019-05-10T12:47:36.688Z,100530.39
2019-05-10T12:50:08.481Z,100540.91
2019-05-10T12:52:38.216Z,100535.98
2019-05-10T12:55:08.815Z,100543.41
2019-05-10T12:57:42.687Z,100551.16
2019-05-10T13:00:13.063Z,100551.05
2019-05-10T13:02:44.734Z,100548.35
2019-05-10T13:05:15.634Z,100553.53
2019-05-10T13:07:45.149Z,100563.40
2019-05-10T13:10:16.090Z,100578.55
2019-05-10T13:12:47.434Z,100581.99
2019-05-10T13:15:17.287Z,100592.57
2019-05-10T13:17:51.246Z,100594.75
2019-05-10T13:20:20.447Z,100604.30
2019-05-10T13:22:49.970Z,100614.75
2019-05-10T13:25:19.738Z,100617.66
2019-05-10T13:27:49.238Z,100621.86
2019-05-10T13:30:27.581Z,100624.31
2019-05-10T13:32:52.816Z,100627.58
2019-05-10T13:35:22.686Z,100634.09
2019-05-10T13:37:56.902Z,100639.16
2019-05-10T13:40:23.556Z,100646.62
2019-05-10T13:42:53.070Z,100636.92
2019-05-10T13:45:22.644Z,100645.61
2019-05-10T13:47:52.673Z,100643.00
2019-05-10T13:50:22.339Z,100636.61
2019-05-10T13:52:53.050Z,100644.25
2019-05-10T13:55:22.634Z,100643.30
2019-05-10T13:57:54.153Z,100649.39
2019-05-10T14:00:33.154Z,100643.97
2019-05-10T14:02:55.832Z,100647.80
2019-05-10T14:05:25.398Z,100658.83
2019-05-10T14:07:54.965Z,100657.66
2019-05-10T14:10:26.910Z,100659.87
2019-05-10T14:13:01.945Z,100655.06
2019-05-10T14:15:27.648Z,100663.09
2019-05-10T14:17:57.620Z,100658.84
2019-05-10T14:20:27.829Z,100655.81
2019-05-10T14:22:59.039Z,100667.72
2019-05-10T14:25:35.718Z,100666.52
2019-05-10T14:28:00.479Z,100667.78
2019-05-10T14:30:30.210Z,100669.26
2019-05-10T14:33:00.082Z,100669.93
2019-05-10T14:35:29.681Z,100676.73
2019-05-10T14:38:08.209Z,100674.94
2019-05-10T14:40:35.809Z,100672.77
2019-05-10T14:43:05.362Z,100678.19
2019-05-10T14:45:35.021Z,100676.37
2019-05-10T14:48:05.683Z,100677.59
2019-05-10T14:50:35.781Z,100687.67
2019-05-10T14:53:05.537Z,100681.42
2019-05-10T14:55:36.948Z,100687.97
2019-05-10T14:58:06.788Z,100687.94
2019-05-10T15:00:36.643Z,100693.55
2019-05-10T15:03:06.732Z,100689.92
2019-05-10T15:05:36.740Z,100699.80
2019-05-10T15:08:06.551Z,100697.83
2019-05-10T15:10:39.464Z,100698.74
2019-05-10T15:13:07.422Z,100697.19
2019-05-10T15:15:38.670Z,100705.77
2019-05-10T15:18:08.569Z,100697.80
2019-05-10T15:20:38.211Z,100704.38
2019-05-10T15:23:07.807Z,100705.22
2019-05-10T15:25:37.541Z,100710.05
2019-05-10T15:28:07.128Z,100711.14
2019-05-10T15:30:39.257Z,100710.33
2019-05-10T15:33:08.272Z,100713.48
2019-05-10T15:35:37.889Z,100708.04
2019-05-10T15:38:07.466Z,100719.27
2019-05-10T15:40:38.584Z,100714.81
2019-05-10T15:43:10.533Z,100720.38
2019-05-10T15:45:40.000Z,100718.37
2019-05-10T15:48:09.611Z,100727.33
2019-05-10T15:50:41.099Z,100725.44
2019-05-10T15:53:10.561Z,100726.26
2019-05-10T15:55:40.158Z,100735.75
2019-05-10T15:58:09.746Z,100741.27
2019-05-10T16:00:41.651Z,100737.99
2019-05-10T16:03:10.632Z,100741.20
2019-05-10T16:05:44.197Z,100743.28
2019-05-10T16:08:13.618Z,100744.33
2019-05-10T16:10:43.183Z,100745.33
2019-05-10T16:13:14.627Z,100743.76
2019-05-10T16:15:43.948Z,100747.60
2019-05-10T16:18:13.568Z,100753.81
2019-05-10T16:20:43.472Z,100751.25
2019-05-10T16:23:13.029Z,100754.30
2019-05-10T16:25:47.978Z,100755.34
2019-05-10T16:28:15.351Z,100764.33
2019-05-10T16:30:47.017Z,100767.22
2019-05-10T16:33:18.444Z,100769.45
2019-05-10T16:35:49.713Z,100765.89
2019-05-10T16:38:19.364Z,100766.56
2019-05-10T16:40:57.561Z,100773.80
2019-05-10T16:43:24.575Z,100779.26
2019-05-10T16:45:53.420Z,100780.55
2019-05-10T16:48:23.461Z,100779.17
2019-05-10T16:50:55.907Z,100784.08
2019-05-10T16:53:25.448Z,100784.00
2019-05-10T16:55:55.021Z,100786.25
2019-05-10T16:58:24.545Z,100782.95
2019-05-10T17:00:54.182Z,100785.61
2019-05-10T17:03:23.823Z,100791.84
2019-05-10T17:05:58.379Z,100783.24
2019-05-10T17:08:25.123Z,100790.76
2019-05-10T17:10:55.029Z,100784.64
2019-05-10T17:13:24.635Z,100792.84
2019-05-10T17:15:55.742Z,100794.61
2019-05-10T17:18:25.316Z,100798.19
2019-05-10T17:20:55.020Z,100792.33
2019-05-10T17:23:25.008Z,100794.05
2019-05-10T17:25:56.061Z,100792.56
2019-05-10T17:28:29.695Z,100798.67
2019-05-10T17:31:00.049Z,100795.20
2019-05-10T17:33:28.286Z,100803.48
2019-05-10T17:36:07.916Z,100807.63
2019-05-10T17:38:31.752Z,100808.23
2019-05-10T17:41:00.666Z,100805.58
2019-05-10T17:43:31.682Z,100798.19
2019-05-10T17:46:01.486Z,100799.96
2019-05-10T17:48:31.083Z,100802.22
2019-05-10T17:51:00.602Z,100812.47
2019-05-10T17:53:30.435Z,100810.02
2019-05-10T17:56:02.997Z,100817.25
2019-05-10T17:58:33.971Z,100812.63
2019-05-10T18:01:05.151Z,100820.17
2019-05-10T18:03:34.741Z,100826.06
2019-05-10T18:06:05.526Z,100833.80
2019-05-10T18:08:35.845Z,100829.23
2019-05-10T18:11:06.255Z,100822.73
2019-05-10T18:13:40.830Z,100820.13
2019-05-10T18:16:10.954Z,100825.79
2019-05-10T18:18:46.283Z,100818.20
2019-05-10T18:21:16.130Z,100824.52
2019-05-10T18:23:43.173Z,100822.06
2019-05-10T18:26:12.752Z,100821.22
2019-05-10T18:28:42.403Z,100822.58
2019-05-10T18:31:12.513Z,100824.70
2019-05-10T18:33:44.798Z,100826.84
2019-05-10T18:36:13.314Z,100829.84
2019-05-10T18:38:42.866Z,100831.92
2019-05-10T18:41:12.423Z,100829.63
2019-05-10T18:43:42.895Z,100829.77
2019-05-10T18:46:13.887Z,100832.39
2019-05-10T18:48:43.701Z,100834.70
2019-05-10T18:51:18.011Z,100836.30
2019-05-10T18:53:44.670Z,100841.42
2019-05-10T18:56:14.280Z,100843.97
2019-05-10T18:58:43.804Z,100845.75
2019-05-10T19:01:13.429Z,100854.06
2019-05-10T19:03:43.146Z,100857.58
2019-05-10T19:06:13.295Z,100857.47
2019-05-10T19:08:44.069Z,100865.46
2019-05-10T19:11:14.364Z,100862.63
2019-05-10T19:13:48.028Z,100863.92
2019-05-10T19:16:16.435Z,100863.33
2019-05-10T19:18:46.819Z,100872.80
2019-05-10T19:21:16.637Z,100869.04
2019-05-10T19:23:52.285Z,100874.96
2019-05-10T19:26:23.788Z,100877.35
2019-05-10T19:28:50.146Z,100877.61
2019-05-10T19:31:19.840Z,100879.14
2019-05-10T19:33:49.431Z,100884.95
2019-05-10T19:36:18.947Z,100884.89
2019-05-10T19:38:48.610Z,100885.48
2019-05-10T19:41:20.240Z,100885.67
2019-05-10T19:43:50.112Z,100897.61
2019-05-10T19:46:20.020Z,100900.66
2019-05-10T19:48:55.019Z,100902.00
2019-05-10T19:51:24.694Z,100900.34
2019-05-10T19:53:57.634Z,100902.56
2019-05-10T19:56:30.230Z,100898.28
2019-05-10T19:58:58.908Z,100900.20
2019-05-10T20:01:28.557Z,100904.83
2019-05-10T20:03:58.237Z,100909.98
2019-05-10T20:06:27.825Z,100915.45
2019-05-10T20:08:57.448Z,100916.49
2019-05-10T20:11:27.053Z,100918.21
2019-05-10T20:13:56.618Z,100923.67
2019-05-10T20:16:26.289Z,100921.66
2019-05-10T20:18:55.924Z,100924.69
2019-05-10T20:21:25.546Z,100926.66
2019-05-10T20:23:55.326Z,100923.25
2019-05-10T20:26:25.261Z,100927.50
2019-05-10T20:28:54.764Z,100930.22
2019-05-10T20:31:24.453Z,100936.38
2019-05-10T20:33:54.086Z,100930.61
2019-05-10T20:36:23.593Z,100936.22
2019-05-10T20:38:53.243Z,100935.07
2019-05-10T20:41:22.947Z,100933.69
2019-05-10T20:43:52.652Z,100935.73
2019-05-10T20:46:22.363Z,100939.81
2019-05-10T20:48:52.153Z,100934.38
2019-05-10T20:51:21.757Z,100938.14
2019-05-10T20:53:51.424Z,100934.09
2019-05-10T20:56:21.144Z,100945.30
2019-05-10T20:58:50.702Z,100943.77
2019-05-10T21:01:20.789Z,100945.47
2019-05-10T21:03:50.511Z,100943.08
2019-05-10T21:06:20.119Z,100948.34
2019-05-10T21:08:50.267Z,100946.14
2019-05-10T21:11:19.937Z,100951.23
2019-05-10T21:13:49.749Z,100950.38
2019-05-10T21:16:19.423Z,100953.77
2019-05-10T21:18:48.939Z,100952.73
2019-05-10T21:21:38.974Z,100954.77
2019-05-10T21:24:08.745Z,100959.82
2019-05-10T21:26:38.309Z,100959.17
2019-05-10T21:29:07.885Z,100966.27
2019-05-10T21:31:37.390Z,100971.18
2019-05-10T21:34:09.574Z,100976.37
2019-05-10T21:36:38.213Z,100974.68
2019-05-10T21:39:07.971Z,100978.91
2019-05-10T21:41:37.518Z,100989.45
2019-05-10T21:44:10.027Z,100987.18
2019-05-10T21:46:40.167Z,100986.67
2019-05-10T21:49:09.841Z,100982.03
2019-05-10T21:51:40.495Z,100989.44
2019-05-10T21:54:10.102Z,100990.80
2019-05-10T21:56:39.641Z,100994.82
2019-05-10T21:59:12.095Z,100997.85
2019-05-10T22:01:41.599Z,100999.46
2019-05-10T22:04:11.191Z,101005.38
2019-05-10T22:06:41.198Z,101011.70
2019-05-10T22:09:11.844Z,101021.38
2019-05-10T22:11:41.497Z,101023.67
2019-05-10T22:14:11.049Z,101024.24
2019-05-10T22:16:40.671Z,101023.13
2019-05-10T22:19:10.806Z,101013.85
2019-05-10T22:21:43.497Z,101014.68
2019-05-10T22:24:13.637Z,101015.02
2019-05-10T22:26:43.149Z,101014.98
2019-05-10T22:29:12.944Z,101005.38
2019-05-10T22:31:42.512Z,100996.78
2019-05-10T22:34:12.063Z,100990.58
2019-05-10T22:36:41.603Z,100985.70
2019-05-10T22:39:11.122Z,100985.70
2019-05-10T22:41:40.807Z,100992.81
2019-05-10T22:44:13.808Z,100988.84
2019-05-10T22:46:43.428Z,100988.50
2019-05-10T22:49:13.014Z,100993.98
2019-05-10T22:51:42.623Z,100999.11
2019-05-10T22:54:13.338Z,101002.98
2019-05-10T22:56:42.893Z,101002.00
2019-05-10T22:59:12.526Z,101008.07
2019-05-10T23:01:42.086Z,101002.91
2019-05-10T23:04:11.609Z,101001.55
2019-05-10T23:06:42.128Z,101004.92
2019-05-10T23:09:24.248Z,101007.09
2019-05-10T23:11:42.958Z,100998.09
2019-05-10T23:14:12.545Z,101003.95
2019-05-10T23:16:42.051Z,100994.23
2019-05-10T23:19:11.633Z,100994.04
2019-05-10T23:21:41.168Z,100996.65
2019-05-10T23:24:12.316Z,101003.81
2019-05-10T23:26:42.017Z,101002.85
2019-05-10T23:29:11.903Z,101007.39
2019-05-10T23:31:41.503Z,101013.53
2019-05-10T23:34:11.194Z,101018.84
2019-05-10T23:36:41.280Z,101008.03
2019-05-10T23:39:10.807Z,101009.20
2019-05-10T23:41:40.346Z,101009.73
2019-05-10T23:44:09.911Z,101015.05
2019-05-10T23:46:39.444Z,101017.05
2019-05-10T23:49:09.295Z,101019.69
2019-05-10T23:51:39.020Z,101013.94
2019-05-10T23:54:08.551Z,101012.00
2019-05-10T23:56:38.131Z,101010.30
2019-05-10T23:59:09.288Z,101012.03
